Time;durP1;ratioP1;P1;durP2;ratioP2;P2;SDS_P1;SDS_P2;PMS_P1;PMS_P2;Temp;Humidity;BMP_temperature;BMP_pressure;BME280_temperature;BME280_humidity;BME280_pressure;Samples;Min_cycle;Max_cycle;Signal;HPM_P1;HPM_P2
2023/04/05 00:02:17;;;;;;;6.17;3.07;;;1.80;1.00;;;;;;5046472;28;20192;-62
2023/04/05 00:04:49;;;;;;;5.47;3.40;;;1.80;1.00;;;;;;5029098;28;20225;-62
2023/04/05 00:07:16;;;;;;;3.80;2.83;;;1.80;1.00;;;;;;5016810;28;20201;-62
2023/04/05 00:09:43;;;;;;;5.17;3.17;;;1.70;1.00;;;;;;5042133;28;20744;-62
2023/04/05 00:12:10;;;;;;;5.50;3.10;;;1.70;1.00;;;;;;5035649;28;20204;-62
2023/04/05 00:14:39;;;;;;;4.17;3.00;;;1.70;1.00;;;;;;5020657;28;20318;-62
2023/04/05 00:17:05;;;;;;;7.30;3.03;;;1.50;1.00;;;;;;5043449;28;20835;-62
2023/04/05 00:19:32;;;;;;;6.17;3.47;;;1.50;1.00;;;;;;5042815;28;20206;-62
2023/04/05 00:21:59;;;;;;;5.70;3.50;;;1.40;1.00;;;;;;5008411;28;20210;-62
2023/04/05 00:24:28;;;;;;;4.77;3.10;;;1.30;1.00;;;;;;5044765;28;20238;-62
2023/04/05 00:26:55;;;;;;;4.87;2.63;;;1.20;1.00;;;;;;5031658;28;20891;-62
2023/04/05 00:29:22;;;;;;;4.33;2.87;;;1.20;1.00;;;;;;5024843;28;20699;-62
2023/04/05 00:31:50;;;;;;;6.33;3.37;;;1.10;1.00;;;;;;5023409;28;20202;-62
2023/04/05 00:34:17;;;;;;;7.97;3.37;;;1.10;1.00;;;;;;5043323;28;20683;-62
2023/04/05 00:36:44;;;;;;;3.97;3.20;;;1.10;1.00;;;;;;5010075;28;22405;-62
2023/04/05 00:39:11;;;;;;;8.07;3.40;;;1.10;1.00;;;;;;5043252;28;20695;-62
2023/04/05 00:41:38;;;;;;;4.40;3.33;;;1.20;1.00;;;;;;5030298;28;20193;-62
2023/04/05 00:44:06;;;;;;;4.80;3.47;;;1.20;1.00;;;;;;5040367;28;20229;-62
2023/04/05 00:46:35;;;;;;;5.13;3.43;;;1.30;1.00;;;;;;5015669;28;20204;-62
2023/04/05 00:49:03;;;;;;;6.73;2.90;;;1.30;1.00;;;;;;5039712;28;20213;-62
2023/04/05 00:51:32;;;;;;;5.10;3.17;;;1.30;1.00;;;;;;5017057;28;20939;-62
2023/04/05 00:54:00;;;;;;;5.37;3.57;;;1.20;1.00;;;;;;5030610;28;20211;-62
2023/04/05 00:56:28;;;;;;;5.00;3.30;;;1.10;1.00;;;;;;5037087;28;20193;-62
2023/04/05 00:58:55;;;;;;;9.83;3.27;;;1.00;1.00;;;;;;5033666;28;20643;-62
2023/04/05 01:01:23;;;;;;;4.73;3.13;;;0.90;1.00;;;;;;5018262;28;20668;-62
2023/04/05 01:03:58;;;;;;;6.20;3.87;;;1.00;1.00;;;;;;5034991;28;20441;-62
2023/04/05 01:06:44;;;;;;;5.37;3.27;;;1.00;1.00;;;;;;5032218;28;20275;-62
2023/04/05 01:09:20;;;;;;;4.53;3.47;;;1.10;1.00;;;;;;5011147;28;20328;-62
2023/04/05 01:11:48;;;;;;;4.47;3.50;;;1.10;1.00;;;;;;5034591;28;20193;-62
2023/04/05 01:14:15;;;;;;;7.83;3.10;;;1.20;1.00;;;;;;5032016;28;20273;-62
2023/04/05 01:16:42;;;;;;;6.93;3.20;;;1.20;1.00;;;;;;5009329;28;21838;-62
2023/04/05 01:19:12;;;;;;;9.73;3.67;;;1.10;1.00;;;;;;5039422;28;20194;-62
2023/04/05 01:22:13;;;;;;;7.60;3.43;;;1.00;1.00;;;;;;5034490;28;20196;-62
2023/04/05 01:25:01;;;;;;;13.03;3.47;;;1.00;1.00;;;;;;5007392;28;21071;-62
2023/04/05 01:27:44;;;;;;;6.23;3.23;;;1.10;1.00;;;;;;5040644;28;20208;-62
2023/04/05 01:30:17;;;;;;;6.67;2.80;;;1.20;1.00;;;;;;5027958;28;20205;-62
2023/04/05 01:32:55;;;;;;;5.13;3.30;;;1.10;1.00;;;;;;5015040;28;20704;-62
2023/04/05 01:35:29;;;;;;;5.37;3.07;;;1.00;1.00;;;;;;5034797;28;20401;-62
2023/04/05 01:37:59;;;;;;;5.57;3.30;;;1.00;1.00;;;;;;5009927;28;20220;-63
2023/04/05 01:40:28;;;;;;;5.17;3.53;;;1.00;1.00;;;;;;5046122;28;20206;-62
2023/04/05 01:42:55;;;;;;;5.77;3.17;;;1.00;1.00;;;;;;5027461;28;20892;-62
2023/04/05 01:45:23;;;;;;;3.20;2.90;;;1.10;1.00;;;;;;5036860;28;20234;-62
2023/04/05 01:47:50;;;;;;;4.73;3.33;;;0.80;1.00;;;;;;5023586;28;22072;-62
2023/04/05 01:50:16;;;;;;;5.83;3.63;;;0.90;1.00;;;;;;5036371;28;20204;-62
2023/04/05 01:52:43;;;;;;;4.27;3.20;;;0.70;1.00;;;;;;5043888;28;20202;-62
2023/04/05 01:55:10;;;;;;;3.80;3.10;;;0.60;1.00;;;;;;5009139;28;20209;-62
2023/04/05 01:57:38;;;;;;;6.50;3.17;;;0.50;1.00;;;;;;5037465;28;20222;-62
2023/04/05 02:00:05;;;;;;;9.43;3.40;;;0.50;1.00;;;;;;5029857;28;20506;-62
2023/04/05 02:02:33;;;;;;;4.20;3.00;;;0.60;1.00;;;;;;5032383;28;20201;-62
2023/04/05 02:05:00;;;;;;;6.10;2.93;;;0.40;1.00;;;;;;5016502;28;20280;-62
2023/04/05 02:07:27;;;;;;;4.87;3.17;;;0.40;1.00;;;;;;5033695;28;20204;-62
2023/04/05 02:09:54;;;;;;;4.87;3.33;;;0.40;1.00;;;;;;5010151;28;20211;-62
2023/04/05 02:12:21;;;;;;;4.37;3.33;;;0.40;1.00;;;;;;5043380;28;20203;-62
2023/04/05 02:14:48;;;;;;;4.07;3.13;;;0.30;1.00;;;;;;5040117;28;20198;-62
2023/04/05 02:17:16;;;;;;;5.30;3.40;;;0.20;1.00;;;;;;5024438;28;20255;-62
2023/04/05 02:19:45;;;;;;;5.27;3.00;;;0.10;1.00;;;;;;5030419;28;20200;-62
2023/04/05 02:22:12;;;;;;;7.90;3.10;;;0.00;1.00;;;;;;5035242;28;20405;-62
2023/04/05 02:24:39;;;;;;;4.50;3.27;;;0.00;1.00;;;;;;5041845;28;20479;-61
2023/04/05 02:27:06;;;;;;;3.10;2.67;;;-0.10;1.00;;;;;;5008212;28;20206;-62
2023/04/05 02:29:33;;;;;;;5.30;3.57;;;-0.10;1.00;;;;;;5040465;28;20205;-62
2023/04/05 02:32:00;;;;;;;5.77;3.20;;;-0.10;1.00;;;;;;5024662;28;20290;-62
2023/04/05 02:34:27;;;;;;;6.43;3.50;;;-0.10;1.00;;;;;;5033145;28;20189;-62
2023/04/05 02:36:55;;;;;;;6.30;3.40;;;0.00;1.00;;;;;;5037942;28;20219;-62
2023/04/05 02:39:22;;;;;;;6.37;3.60;;;0.10;1.00;;;;;;5037514;28;20200;-62
2023/04/05 02:41:49;;;;;;;7.23;3.70;;;0.20;1.00;;;;;;5003856;28;20209;-62
2023/04/05 02:44:16;;;;;;;6.33;3.37;;;0.30;1.00;;;;;;5039852;28;20250;-62
2023/04/05 02:46:42;;;;;;;8.67;3.90;;;0.30;1.00;;;;;;5029604;28;20637;-62
2023/04/05 02:49:09;;;;;;;12.60;4.00;;;0.40;1.00;;;;;;5017267;28;20940;-62
2023/04/05 02:51:36;;;;;;;5.47;3.13;;;0.50;1.00;;;;;;5042308;28;20571;-62
2023/04/05 02:54:04;;;;;;;5.47;3.70;;;0.60;1.00;;;;;;5035365;28;20993;-62
2023/04/05 02:56:31;;;;;;;5.67;2.97;;;0.70;1.00;;;;;;5008847;28;20305;-62
2023/04/05 02:58:58;;;;;;;5.93;3.10;;;0.80;1.00;;;;;;5033634;28;20195;-61
2023/04/05 03:01:25;;;;;;;5.47;4.00;;;0.80;1.00;;;;;;5039261;28;20207;-62
2023/04/05 03:03:52;;;;;;;6.13;3.47;;;0.80;1.00;;;;;;5017026;28;20222;-62
2023/04/05 03:06:19;;;;;;;5.63;3.50;;;0.90;1.00;;;;;;5025281;28;20202;-62
2023/04/05 03:08:48;;;;;;;9.23;3.90;;;0.90;1.00;;;;;;5041012;28;20197;-62
2023/04/05 03:11:16;;;;;;;4.37;3.60;;;0.90;1.00;;;;;;5017061;28;20201;-62
2023/04/05 03:13:43;;;;;;;4.87;3.23;;;0.70;1.00;;;;;;5035358;28;20207;-62
2023/04/05 03:16:11;;;;;;;7.23;3.53;;;0.60;1.00;;;;;;5040317;28;20753;-62
2023/04/05 03:18:38;;;;;;;6.20;3.87;;;0.40;1.00;;;;;;5022250;28;20592;-62
2023/04/05 03:21:05;;;;;;;6.60;3.37;;;0.40;1.00;;;;;;5031235;28;20228;-62
2023/04/05 03:23:32;;;;;;;7.17;3.63;;;0.30;1.00;;;;;;5040668;28;20223;-62
2023/04/05 03:26:00;;;;;;;6.93;3.40;;;0.40;1.00;;;;;;5041167;28;20201;-62
2023/04/05 03:28:31;;;;;;;6.37;3.30;;;0.40;1.00;;;;;;5005311;28;20210;-62
2023/04/05 03:30:58;;;;;;;5.77;3.50;;;0.40;1.00;;;;;;5034338;28;20430;-62
2023/04/05 03:33:24;;;;;;;5.63;3.90;;;0.40;1.00;;;;;;5026916;28;20212;-62
2023/04/05 03:35:51;;;;;;;4.50;3.37;;;0.30;1.00;;;;;;5021339;28;20426;-62
2023/04/05 03:38:18;;;;;;;10.37;3.90;;;0.20;1.00;;;;;;5040770;28;20222;-62
2023/04/05 03:40:45;;;;;;;5.80;3.73;;;0.20;1.00;;;;;;5037472;28;20765;-62
2023/04/05 03:43:12;;;;;;;5.73;3.87;;;0.10;1.00;;;;;;5013662;28;20209;-62
2023/04/05 03:45:40;;;;;;;7.23;3.00;;;0.00;1.00;;;;;;5040845;28;20218;-62
2023/04/05 03:48:07;;;;;;;5.23;3.23;;;0.00;1.00;;;;;;5040819;28;20690;-62
2023/04/05 03:50:34;;;;;;;9.30;3.50;;;0.00;1.00;;;;;;5022711;28;20222;-62
2023/04/05 03:53:00;;;;;;;12.00;4.27;;;0.20;1.00;;;;;;5039959;28;20201;-62
2023/04/05 03:55:27;;;;;;;7.53;4.03;;;0.20;1.00;;;;;;5040342;28;20209;-62
2023/04/05 03:57:54;;;;;;;5.10;3.63;;;0.30;1.00;;;;;;5009503;28;21934;-63
2023/04/05 04:00:23;;;;;;;8.40;3.63;;;0.10;1.00;;;;;;5041350;28;20201;-62
2023/04/05 04:02:52;;;;;;;5.20;3.27;;;0.10;1.00;;;;;;5034977;28;20517;-62
2023/04/05 04:05:19;;;;;;;8.70;3.33;;;0.00;1.00;;;;;;5027024;28;20707;-62
2023/04/05 04:07:47;;;;;;;5.33;3.90;;;-0.10;1.00;;;;;;5024129;28;20208;-62
2023/04/05 04:10:16;;;;;;;7.50;4.00;;;-0.20;1.00;;;;;;5034304;28;20202;-62
2023/04/05 04:12:44;;;;;;;5.30;3.70;;;-0.30;1.00;;;;;;5009639;28;20212;-62
2023/04/05 04:15:11;;;;;;;7.33;3.80;;;-0.30;1.00;;;;;;5035402;28;20320;-61
2023/04/05 04:17:38;;;;;;;5.47;3.37;;;-0.30;1.00;;;;;;5041734;28;20201;-62
2023/04/05 04:20:10;;;;;;;4.97;3.20;;;-0.30;1.00;;;;;;5026612;28;20585;-61
2023/04/05 04:22:39;;;;;;;5.30;3.43;;;-0.20;1.00;;;;;;5022452;28;20204;-62
2023/04/05 04:25:08;;;;;;;7.47;3.37;;;-0.20;1.00;;;;;;5038084;28;20228;-61
2023/04/05 04:27:36;;;;;;;6.60;3.57;;;-0.20;1.00;;;;;;5035635;28;20189;-62
2023/04/05 04:30:03;;;;;;;6.13;4.00;;;-0.20;1.00;;;;;;5015142;28;20679;-62
2023/04/05 04:35:13;;;;;;;6.70;3.77;;;-0.10;1.00;;;;;;5033150;28;20216;-62
2023/04/05 04:37:46;;;;;;;5.07;3.67;;;-0.10;1.00;;;;;;5023654;28;20569;-62
2023/04/05 04:40:15;;;;;;;6.60;3.73;;;-0.10;1.00;;;;;;5042124;28;20205;-62
2023/04/05 04:42:45;;;;;;;5.37;3.43;;;-0.10;1.00;;;;;;5029252;28;20876;-62
2023/04/05 04:45:14;;;;;;;10.13;3.63;;;0.00;1.00;;;;;;5008081;28;20256;-62
2023/04/05 04:47:42;;;;;;;5.23;3.43;;;-0.10;1.00;;;;;;5036733;28;20908;-62
2023/04/05 04:50:10;;;;;;;5.47;3.47;;;-0.20;1.00;;;;;;5044888;28;20255;-62
2023/04/05 04:52:39;;;;;;;6.97;3.80;;;-0.30;1.00;;;;;;5025829;28;20204;-62
2023/04/05 04:55:08;;;;;;;6.27;3.90;;;-0.40;1.00;;;;;;5029964;28;20852;-61
2023/04/05 04:57:34;;;;;;;6.07;3.90;;;-0.50;1.00;;;;;;5036362;28;20206;-62
2023/04/05 05:00:06;;;;;;;5.93;3.63;;;-0.60;1.00;;;;;;5038228;28;20204;-62
2023/04/05 05:02:33;;;;;;;6.37;3.90;;;-0.60;1.00;;;;;;4999196;28;20303;-62
2023/04/05 05:04:59;;;;;;;9.80;4.13;;;-0.60;1.00;;;;;;5045723;28;20424;-62
2023/04/05 05:07:26;;;;;;;4.77;3.77;;;-0.60;1.00;;;;;;5002179;28;20216;-61
2023/04/05 05:09:54;;;;;;;6.27;3.70;;;-0.60;1.00;;;;;;5025335;28;20210;-61
2023/04/05 05:12:22;;;;;;;8.47;3.60;;;-0.60;1.00;;;;;;5027944;28;20962;-61
2023/04/05 05:14:49;;;;;;;6.17;3.93;;;-0.50;1.00;;;;;;5023737;28;20689;-62
2023/04/05 05:17:15;;;;;;;5.17;3.67;;;-0.60;1.00;;;;;;4996604;28;20608;-62
2023/04/05 05:19:42;;;;;;;3.90;3.13;;;-0.60;1.00;;;;;;5028533;28;20236;-62
2023/04/05 05:22:09;;;;;;;7.33;4.17;;;-0.60;1.00;;;;;;5012364;28;20202;-62
2023/04/05 05:24:36;;;;;;;8.87;3.67;;;-0.60;1.00;;;;;;5032425;28;20219;-62
2023/04/05 05:27:04;;;;;;;6.43;4.23;;;-0.50;1.00;;;;;;5008719;28;20727;-62
2023/04/05 05:29:31;;;;;;;7.93;4.70;;;-0.40;3.30;;;;;;5017497;28;20215;-62
2023/04/05 05:31:58;;;;;;;7.10;4.93;;;-0.40;4.40;;;;;;5004298;28;20205;-62
2023/04/05 05:34:25;;;;;;;9.33;4.70;;;-0.40;1.00;;;;;;5032311;28;20795;-62
2023/04/05 05:36:52;;;;;;;8.07;4.43;;;-0.40;1.00;;;;;;5013394;28;20208;-62
2023/04/05 05:39:19;;;;;;;5.10;3.77;;;-0.40;1.30;;;;;;5031269;28;20216;-61
2023/04/05 05:41:46;;;;;;;6.43;4.47;;;-0.40;8.90;;;;;;5021358;28;20912;-61
2023/04/05 05:44:14;;;;;;;6.30;4.20;;;-0.40;12.60;;;;;;5025040;28;20325;-62
2023/04/05 05:46:41;;;;;;;8.63;4.23;;;-0.40;9.40;;;;;;5001900;28;21644;-62
2023/04/05 05:49:09;;;;;;;8.77;4.07;;;-0.40;2.30;;;;;;5039340;28;20199;-62
2023/04/05 05:51:36;;;;;;;7.07;4.60;;;-0.40;1.00;;;;;;5035634;28;20198;-61
2023/04/05 05:54:02;;;;;;;6.97;3.90;;;-0.40;11.20;;;;;;5023140;28;20202;-62
2023/04/05 05:56:30;;;;;;;5.07;3.40;;;-0.30;15.80;;;;;;5021427;28;20572;-61
2023/04/05 05:58:58;;;;;;;10.17;4.43;;;-0.30;18.10;;;;;;5007231;28;25763;-62
2023/04/05 06:01:27;;;;;;;10.33;4.33;;;-0.20;14.80;;;;;;5025878;28;20296;-61
2023/04/05 06:03:54;;;;;;;7.70;4.53;;;-0.20;10.50;;;;;;4989547;28;20330;-62
2023/04/05 06:06:21;;;;;;;6.43;3.93;;;-0.10;8.20;;;;;;5030360;28;20249;-61
2023/04/05 06:08:48;;;;;;;7.40;3.80;;;-0.10;1.00;;;;;;4992200;28;20796;-61
2023/04/05 06:11:18;;;;;;;4.50;3.77;;;-0.10;1.00;;;;;;5029372;28;20285;-62
2023/04/05 06:13:45;;;;;;;7.73;3.90;;;0.10;9.70;;;;;;4997501;28;20233;-62
2023/04/05 06:16:12;;;;;;;7.40;4.17;;;0.20;10.70;;;;;;5034509;28;20238;-62
2023/04/05 06:18:41;;;;;;;6.57;3.63;;;0.20;12.70;;;;;;4998734;28;20361;-62
2023/04/05 06:21:08;;;;;;;10.07;3.57;;;0.30;7.50;;;;;;5021994;28;20200;-62
2023/04/05 06:23:34;;;;;;;9.73;3.93;;;0.40;5.10;;;;;;5025195;28;23383;-62
2023/04/05 06:26:01;;;;;;;5.03;3.53;;;0.50;5.50;;;;;;5040723;28;20228;-62
2023/04/05 06:28:28;;;;;;;6.87;4.07;;;0.60;1.00;;;;;;5022213;28;20208;-62
2023/04/05 06:30:58;;;;;;;7.17;3.17;;;0.70;1.00;;;;;;5038763;28;20501;-62
2023/04/05 06:33:25;;;;;;;6.17;3.67;;;0.80;1.00;;;;;;5027367;28;20206;-62
2023/04/05 06:35:53;;;;;;;6.37;3.97;;;0.90;1.00;;;;;;5014781;28;20769;-62
2023/04/05 06:38:19;;;;;;;6.33;3.73;;;1.00;1.00;;;;;;5031671;28;20201;-62
2023/04/05 06:40:46;;;;;;;4.87;3.23;;;1.10;1.00;;;;;;5030384;28;20216;-62
2023/04/05 06:43:13;;;;;;;5.47;3.67;;;1.20;1.00;;;;;;5028842;28;20202;-62
2023/04/05 06:45:40;;;;;;;5.77;3.60;;;1.30;1.00;;;;;;5025525;28;20233;-62
2023/04/05 06:48:07;;;;;;;4.87;3.17;;;1.40;1.00;;;;;;5043889;28;20206;-62
2023/04/05 06:50:34;;;;;;;4.97;2.90;;;1.50;1.00;;;;;;5008865;28;20326;-62
2023/04/05 06:53:03;;;;;;;5.33;3.30;;;1.50;1.00;;;;;;5040946;28;20555;-62
2023/04/05 06:55:30;;;;;;;4.77;2.93;;;1.60;1.00;;;;;;5031469;28;20211;-62
2023/04/05 06:57:57;;;;;;;5.73;3.10;;;1.70;1.00;;;;;;5029534;28;20209;-62
2023/04/05 07:00:24;;;;;;;8.20;3.30;;;1.80;1.00;;;;;;5025733;28;20475;-61
2023/04/05 07:02:51;;;;;;;4.43;3.03;;;1.80;1.00;;;;;;5040186;28;20368;-62
2023/04/05 07:05:18;;;;;;;5.30;2.70;;;1.80;1.00;;;;;;5040515;28;20243;-62
2023/04/05 07:07:47;;;;;;;5.13;3.33;;;1.90;1.00;;;;;;5002999;28;20509;-62
2023/04/05 07:10:16;;;;;;;10.70;3.07;;;1.90;1.00;;;;;;5023730;28;20289;-62
2023/04/05 07:12:42;;;;;;;6.00;3.37;;;2.00;1.00;;;;;;5037289;28;20208;-62
2023/04/05 07:15:10;;;;;;;8.07;3.10;;;2.10;1.00;;;;;;5018037;28;20259;-62
2023/04/05 07:17:37;;;;;;;4.20;2.40;;;2.20;1.00;;;;;;5021012;28;20220;-62
2023/04/05 07:20:06;;;;;;;5.77;2.60;;;2.30;1.00;;;;;;5039639;28;20204;-62
2023/04/05 07:22:34;;;;;;;3.63;2.97;;;2.30;1.00;;;;;;5012575;28;20259;-62
2023/04/05 07:25:01;;;;;;;6.33;2.97;;;2.40;1.00;;;;;;5005412;28;20460;-62
2023/04/05 07:27:30;;;;;;;4.03;2.63;;;2.50;1.00;;;;;;5026514;28;20669;-62
2023/04/05 07:29:57;;;;;;;6.37;2.40;;;2.70;1.00;;;;;;5008835;28;20213;-62
2023/04/05 07:32:23;;;;;;;5.93;2.87;;;2.80;1.00;;;;;;5027900;28;20235;-62
2023/04/05 07:34:50;;;;;;;3.63;2.60;;;2.80;1.00;;;;;;5012994;28;20941;-62
2023/04/05 07:37:17;;;;;;;7.17;2.70;;;2.90;1.00;;;;;;5010235;28;20232;-62
2023/04/05 07:39:44;;;;;;;6.33;3.00;;;2.90;1.00;;;;;;5030275;28;20219;-62
2023/04/05 07:42:11;;;;;;;3.07;2.50;;;3.00;1.00;;;;;;5023606;28;20211;-62
2023/04/05 07:44:39;;;;;;;3.43;2.53;;;3.10;1.00;;;;;;5048113;28;20204;-62
2023/04/05 07:47:05;;;;;;;2.70;2.17;;;3.10;1.00;;;;;;5011230;28;21353;-62
2023/04/05 07:49:32;;;;;;;2.73;2.07;;;3.20;99.90;;;;;;5038306;28;20242;-62
2023/04/05 07:51:59;;;;;;;7.00;2.83;;;3.30;1.00;;;;;;5011030;28;20512;-63
2023/04/05 07:54:26;;;;;;;5.40;2.33;;;3.40;99.90;;;;;;5045314;28;20212;-62
2023/04/05 07:56:54;;;;;;;2.90;2.20;;;3.50;99.90;;;;;;5022364;28;20224;-62
2023/04/05 07:59:21;;;;;;;2.43;1.90;;;3.50;99.90;;;;;;5022022;28;20216;-62
2023/04/05 08:01:49;;;;;;;4.57;2.20;;;3.60;99.90;;;;;;5014322;28;20228;-62
2023/04/05 08:04:16;;;;;;;7.90;2.30;;;3.70;99.90;;;;;;5025391;28;20221;-62
2023/04/05 08:06:42;;;;;;;2.67;2.17;;;3.70;1.00;;;;;;4987879;28;20967;-62
2023/04/05 08:09:11;;;;;;;4.83;2.30;;;3.90;99.90;;;;;;5035692;28;20216;-62
2023/04/05 08:11:37;;;;;;;4.17;2.10;;;3.90;99.90;;;;;;5022816;28;20259;-63
2023/04/05 08:14:05;;;;;;;2.60;2.17;;;4.00;1.00;;;;;;5033254;28;20628;-62
2023/04/05 08:16:32;;;;;;;3.10;2.40;;;4.10;1.00;;;;;;5028664;28;20232;-62
2023/04/05 08:19:00;;;;;;;3.97;2.30;;;4.20;54.40;;;;;;5018653;28;20326;-62
2023/04/05 08:21:27;;;;;;;4.07;2.00;;;4.30;1.00;;;;;;5002998;28;20840;-63
2023/04/05 08:23:54;;;;;;;3.20;2.23;;;4.40;1.00;;;;;;5018085;28;20236;-62
2023/04/05 08:26:21;;;;;;;11.47;1.87;;;4.40;1.00;;;;;;5034445;28;20227;-63
2023/04/05 08:28:48;;;;;;;6.23;2.00;;;4.50;60.60;;;;;;5016537;28;20320;-63
2023/04/05 08:31:15;;;;;;;5.83;2.00;;;4.60;82.20;;;;;;5020597;28;20221;-62
2023/04/05 08:33:41;;;;;;;7.97;2.03;;;4.60;99.90;;;;;;5011794;28;20215;-62
2023/04/05 08:36:10;;;;;;;2.57;1.70;;;4.70;99.90;;;;;;5007105;28;20748;-62
2023/04/05 08:38:37;;;;;;;2.43;1.70;;;4.80;1.00;;;;;;5000707;28;20221;-63
2023/04/05 08:41:09;;;;;;;5.00;2.00;;;5.00;99.90;;;;;;5018724;28;20716;-62
2023/04/05 08:43:47;;;;;;;3.67;1.70;;;5.10;99.90;;;;;;5011681;28;20217;-62
2023/04/05 08:46:16;;;;;;;3.50;1.67;;;5.10;99.90;;;;;;5023093;28;20313;-62
2023/04/05 08:48:43;;;;;;;2.53;1.70;;;5.10;99.90;;;;;;5008660;28;20226;-63
2023/04/05 08:51:11;;;;;;;5.07;3.10;;;5.10;99.90;;;;;;4990010;28;20733;-62
2023/04/05 08:53:38;;;;;;;3.93;2.00;;;5.20;99.90;;;;;;4980196;28;20316;-62
2023/04/05 08:56:06;;;;;;;4.33;2.00;;;5.30;99.90;;;;;;5035782;28;20216;-62
2023/04/05 08:58:37;;;;;;;4.07;2.33;;;5.40;88.90;;;;;;5017897;28;20247;-62
2023/04/05 09:01:06;;;;;;;3.73;2.00;;;5.50;1.00;;;;;;5035270;28;20199;-63
2023/04/05 09:03:37;;;;;;;3.23;2.30;;;5.60;1.00;;;;;;5017538;28;20196;-62
2023/04/05 09:06:09;;;;;;;4.90;2.47;;;5.60;1.00;;;;;;5016882;28;20233;-62
2023/04/05 09:08:40;;;;;;;3.00;2.20;;;5.60;1.00;;;;;;5042466;28;20231;-62
2023/04/05 09:11:06;;;;;;;3.10;2.27;;;5.70;1.00;;;;;;5014274;28;20221;-63
2023/04/05 09:13:34;;;;;;;3.33;2.30;;;5.70;1.00;;;;;;5025699;28;20696;-62
2023/04/05 09:16:02;;;;;;;2.73;2.10;;;5.80;1.00;;;;;;5036319;28;20268;-62
2023/04/05 09:18:28;;;;;;;3.67;2.17;;;5.80;1.00;;;;;;5029972;28;20804;-62
2023/04/05 09:21:01;;;;;;;3.10;1.90;;;5.80;1.00;;;;;;5042698;28;20259;-63
2023/04/05 09:23:29;;;;;;;3.63;2.00;;;5.80;1.00;;;;;;5015255;28;20231;-63
2023/04/05 09:25:57;;;;;;;3.93;2.50;;;6.00;1.00;;;;;;5003669;28;20239;-62
2023/04/05 09:28:35;;;;;;;5.00;2.00;;;6.10;1.00;;;;;;5042975;28;20602;-62
2023/04/05 09:31:02;;;;;;;3.17;2.30;;;6.10;1.00;;;;;;5029248;28;20251;-63
2023/04/05 09:33:30;;;;;;;8.77;1.93;;;6.10;1.00;;;;;;5033256;28;20217;-62
2023/04/05 09:35:57;;;;;;;3.23;2.17;;;6.30;1.00;;;;;;5027319;28;20732;-62
2023/04/05 09:38:43;;;;;;;3.07;2.37;;;6.30;1.00;;;;;;5007489;28;20232;-63
2023/04/05 09:41:11;;;;;;;5.30;2.30;;;6.30;1.00;;;;;;4983293;28;20343;-63
2023/04/05 09:43:39;;;;;;;3.87;1.90;;;6.30;1.00;;;;;;5040886;28;20223;-62
2023/04/05 09:46:07;;;;;;;5.80;2.10;;;6.30;1.00;;;;;;5001996;28;20229;-62
2023/04/05 09:48:47;;;;;;;6.77;1.93;;;6.30;1.00;;;;;;5048600;22;20228;-95
2023/04/05 09:51:15;;;;;;;2.87;1.80;;;6.30;1.00;;;;;;4991975;28;20226;-94
2023/04/05 09:53:57;;;;;;;2.60;1.83;;;6.20;1.00;;;;;;5003821;28;20225;-93
2023/04/05 09:56:27;;;;;;;4.13;1.63;;;6.20;1.00;;;;;;4986738;28;20449;-93
2023/04/05 09:58:59;;;;;;;1.77;1.50;;;6.20;99.90;;;;;;4996987;28;20226;-94
2023/04/05 10:01:27;;;;;;;2.83;1.77;;;6.10;99.90;;;;;;4982381;28;21273;-92
2023/04/05 10:03:54;;;;;;;3.43;1.60;;;6.10;99.90;;;;;;5008127;28;20221;-92
2023/04/05 10:06:21;;;;;;;7.67;1.53;;;6.20;99.90;;;;;;4987770;28;20233;-92
2023/04/05 10:08:50;;;;;;;3.37;1.57;;;6.20;99.90;;;;;;4997527;28;20287;-91
2023/04/05 10:11:18;;;;;;;2.00;1.50;;;6.30;99.90;;;;;;4988135;28;20224;-92
2023/04/05 10:13:50;;;;;;;1.93;1.50;;;6.40;99.90;;;;;;5002718;28;20321;-90
2023/04/05 10:16:22;;;;;;;3.13;1.60;;;6.30;99.90;;;;;;4977299;28;21374;-90
2023/04/05 10:18:51;;;;;;;5.30;1.70;;;6.30;99.90;;;;;;4997666;28;20226;-90
2023/04/05 10:21:22;;;;;;;2.53;1.60;;;6.40;99.90;;;;;;4992502;28;20273;-90
2023/04/05 10:23:59;;;;;;;4.33;1.67;;;6.50;99.90;;;;;;4965476;28;20236;-91
2023/04/05 10:26:36;;;;;;;7.83;2.40;;;6.60;99.90;;;;;;4980426;28;22523;-91
2023/04/05 10:29:10;;;;;;;2.87;1.47;;;6.50;99.90;;;;;;5009331;28;20194;-91
2023/04/05 10:31:45;;;;;;;3.60;1.93;;;6.50;99.90;;;;;;4998170;28;20202;-91
2023/04/05 10:34:20;;;;;;;2.50;1.50;;;6.70;99.90;;;;;;4977924;28;20205;-89
2023/04/05 10:36:51;;;;;;;3.43;1.83;;;6.80;99.90;;;;;;5002106;28;20210;-92
2023/04/05 10:39:23;;;;;;;4.97;1.70;;;6.80;99.90;;;;;;4998804;28;20205;-92
2023/04/05 10:42:00;;;;;;;2.17;1.30;;;6.80;99.90;;;;;;4986074;28;20206;-92
2023/04/05 10:44:33;;;;;;;4.43;1.73;;;6.90;94.10;;;;;;5002754;28;20232;-92
2023/04/05 10:47:01;;;;;;;2.13;1.60;;;6.90;99.90;;;;;;4987728;28;20223;-94
2023/04/05 10:49:34;;;;;;;8.43;1.80;;;6.90;99.90;;;;;;4981534;28;20237;-94
2023/04/05 10:52:02;;;;;;;7.50;1.90;;;6.80;99.90;;;;;;4978262;28;20222;-96
2023/04/05 10:54:32;;;;;;;4.13;1.37;;;6.80;99.90;;;;;;4985606;28;20214;-90
2023/04/05 10:57:01;;;;;;;2.97;2.20;;;6.90;99.90;;;;;;4959237;28;20759;-93
2023/04/05 10:59:31;;;;;;;3.60;1.70;;;7.00;99.90;;;;;;4982606;28;20241;-90
2023/04/05 11:01:59;;;;;;;2.03;1.40;;;7.00;99.90;;;;;;4972909;28;20226;-91
2023/04/05 11:04:26;;;;;;;2.20;1.67;;;6.90;99.90;;;;;;4975867;28;20281;-95
2023/04/05 11:07:12;;;;;;;2.53;1.53;;;7.10;99.90;;;;;;4982043;28;20576;-95
2023/04/05 11:09:50;;;;;;;2.10;1.57;;;7.20;99.90;;;;;;4977283;28;20223;-94
2023/04/05 11:12:18;;;;;;;2.30;1.23;;;7.20;99.90;;;;;;4982682;28;20607;-96
2023/04/05 11:14:46;;;;;;;1.63;1.30;;;7.30;99.90;;;;;;4976274;28;20211;-95
2023/04/05 11:17:28;;;;;;;1.77;1.40;;;7.50;99.90;;;;;;5011169;28;20198;-94
2023/04/05 11:20:03;;;;;;;4.17;1.70;;;7.50;99.90;;;;;;4981793;28;21153;-94
2023/04/05 11:22:31;;;;;;;3.00;1.60;;;7.50;98.10;;;;;;4990942;28;20191;-96
2023/04/05 11:25:01;;;;;;;1.90;1.33;;;7.40;99.90;;;;;;4994610;28;20309;-93
2023/04/05 11:27:30;;;;;;;3.90;1.40;;;7.50;99.90;;;;;;4984507;28;20230;-93
2023/04/05 11:30:00;;;;;;;3.23;2.10;;;7.50;99.90;;;;;;4975717;28;20659;-94
2023/04/05 11:32:39;;;;;;;2.77;1.83;;;7.50;99.90;;;;;;4993801;28;20281;-94
2023/04/05 11:35:08;;;;;;;4.20;1.60;;;7.50;99.90;;;;;;4969932;28;20294;-94
2023/04/05 11:37:54;;;;;;;2.37;1.60;;;7.50;99.90;;;;;;4988285;28;20214;-96
2023/04/05 11:40:26;;;;;;;2.17;1.60;;;7.70;56.30;;;;;;4991814;28;20282;-96
2023/04/05 11:43:02;;;;;;;2.27;1.70;;;7.90;99.90;;;;;;4984137;28;20778;-93
2023/04/05 11:45:32;;;;;;;2.30;1.80;;;7.80;99.90;;;;;;4972745;28;20248;-93
2023/04/05 11:48:01;;;;;;;2.13;1.40;;;7.80;99.90;;;;;;4993256;28;20234;-93
2023/04/05 11:50:29;;;;;;;2.17;1.60;;;7.70;93.70;;;;;;4984919;28;20222;-93
2023/04/05 11:53:09;;;;;;;10.43;1.80;;;7.70;94.80;;;;;;5011538;28;20221;-93
2023/04/05 11:55:37;;;;;;;3.63;1.70;;;7.50;67.70;;;;;;5000887;28;20252;-94
2023/04/05 11:58:12;;;;;;;3.07;1.30;;;7.50;19.60;;;;;;5001518;28;20233;-94
2023/04/05 12:00:41;;;;;;;3.13;1.60;;;7.40;32.40;;;;;;4990334;28;20459;-94
2023/04/05 12:03:12;;;;;;;4.00;1.83;;;7.40;21.00;;;;;;5010985;28;20198;-92
2023/04/05 12:05:49;;;;;;;2.27;1.40;;;7.30;5.20;;;;;;4984895;28;20314;-94
2023/04/05 12:08:16;;;;;;;2.10;1.43;;;7.30;5.80;;;;;;5014167;28;20222;-92
2023/04/05 12:10:43;;;;;;;4.80;2.00;;;7.30;12.20;;;;;;5000706;28;20217;-92
2023/04/05 12:13:10;;;;;;;2.40;1.57;;;7.30;10.70;;;;;;5000626;28;21172;-91
2023/04/05 12:15:40;;;;;;;2.43;1.50;;;7.20;6.10;;;;;;4981305;28;20222;-93
2023/04/05 12:18:14;;;;;;;2.50;1.40;;;7.20;1.00;;;;;;4975263;28;20359;-93
2023/04/05 12:20:41;;;;;;;1.87;1.57;;;7.20;1.00;;;;;;4986218;28;20758;-89
2023/04/05 12:23:09;;;;;;;1.93;1.50;;;7.20;1.00;;;;;;5004897;28;20205;-91
2023/04/05 12:25:37;;;;;;;2.63;1.60;;;7.10;1.00;;;;;;5012347;28;20202;-90
2023/04/05 12:28:06;;;;;;;3.07;1.53;;;7.20;11.60;;;;;;5001840;28;21708;-92
2023/04/05 12:30:36;;;;;;;3.27;2.13;;;7.20;25.10;;;;;;4978693;28;20209;-91
2023/04/05 12:33:09;;;;;;;1.87;1.50;;;7.40;6.10;;;;;;5007863;28;20206;-91
2023/04/05 12:35:38;;;;;;;2.07;1.60;;;7.50;23.80;;;;;;5006916;28;20218;-91
2023/04/05 12:38:07;;;;;;;2.07;1.60;;;7.60;44.20;;;;;;4982486;28;20226;-94
2023/04/05 12:40:35;;;;;;;2.30;1.30;;;7.50;38.90;;;;;;5012743;28;20585;-92
2023/04/05 12:43:03;;;;;;;2.30;1.73;;;7.50;29.80;;;;;;4991894;28;20670;-92
2023/04/05 12:45:38;;;;;;;1.67;1.57;;;7.40;40.00;;;;;;4965583;28;20521;-92
2023/04/05 12:48:10;;;;;;;3.17;1.80;;;7.40;22.10;;;;;;4984613;28;20388;-93
2023/04/05 12:50:43;;;;;;;2.27;2.00;;;7.30;25.40;;;;;;4977764;28;22948;-93
2023/04/05 12:53:17;;;;;;;2.07;1.40;;;7.30;45.10;;;;;;4968024;28;20222;-93
2023/04/05 12:55:48;;;;;;;2.53;1.97;;;7.50;58.80;;;;;;5005529;28;20233;-96
2023/04/05 12:58:16;;;;;;;3.60;1.80;;;7.30;50.20;;;;;;4997702;28;20316;-96
2023/04/05 13:00:44;;;;;;;2.00;1.80;;;7.50;56.50;;;;;;4976655;28;20731;-95
2023/04/05 13:03:19;;;;;;;2.20;1.50;;;8.20;7.80;;;;;;4986102;28;20245;-96
2023/04/05 13:05:47;;;;;;;4.17;1.73;;;7.30;35.50;;;;;;4984593;28;20222;-96
2023/04/05 13:08:17;;;;;;;3.73;2.00;;;7.30;56.30;;;;;;4993556;28;20363;-94
2023/04/05 13:10:45;;;;;;;4.77;1.80;;;7.40;79.70;;;;;;4999546;28;20301;-94
2023/04/05 13:13:14;;;;;;;6.27;1.63;;;7.50;99.90;;;;;;4997758;28;20206;-96
2023/04/05 13:15:43;;;;;;;3.03;2.00;;;7.60;91.10;;;;;;4992627;28;20210;-94